• Join FlightAware (Why Join?)
  • Login
  • US Flag 
10:19AM EDT


 

Airport Tracker/Info


-or-


 

Live Flight TrackerFlight Track Log ✈ KAP927 ✈ 28-Jun-2013 ✈ KALB - KOGS

Flight Track Log - Related Links

Times and Time Zones

All times are in EDT time to prevent confusion due to time zone crossing. See the KAP927 flight status page for this flight to view local times or setup timezone preferences in your user account.

Time Position Orientation Groundspeed Altitude Reporting Facility
EDT Latitude Longitude Course Direction KTS MPH feet Rate Location/Type
07:03PM 43.4308 -74.3442 329° Northwest 166 191 8,000  Level Boston Center
07:04PM 43.4697 -74.3769 329° Northwest 166 191 8,000  Level Boston Center
07:05PM 43.5108 -74.4125 328° Northwest 166 191 8,000  Level Boston Center
07:06PM 43.5478 -74.4453 327° Northwest 166 191 8,000  Level Boston Center
07:07PM 43.5908 -74.4839 327° Northwest 166 191 8,000  Level Boston Center
07:08PM 43.6297 -74.5197 326° Northwest 166 191 8,000  Level Boston Center
07:09PM 43.6689 -74.5528 329° Northwest 166 191 8,000  Level Boston Center
07:10PM 43.7078 -74.5856 329° Northwest 166 191 8,000  Level Boston Center
07:11PM 43.7467 -74.6214 326° Northwest 166 191 8,000  Level Boston Center
07:12PM 43.7856 -74.6575 326° Northwest 166 191 8,000  Level Boston Center
07:13PM 43.8247 -74.6906 329° Northwest 166 191 8,000  Level Boston Center
07:14PM 43.8656 -74.7267 327° Northwest 166 191 8,000  Level Boston Center
07:15PM 43.9044 -74.7628 326° Northwest 166 191 8,000  Level Boston Center
07:16PM 43.9433 -74.7958 329° Northwest 166 191 8,000  Level Boston Center
07:17PM 43.9742 -74.8231 328° Northwest 166 191 8,000  Level Boston Center
07:18PM 44.0297 -74.8483 342° North 166 191 8,000  Level Boston Center
07:19PM 44.0733 -74.8647 345° North 166 191 8,000  Level Boston Center
07:20PM 44.1186 -74.8867 341° North 166 191 8,000  Level Boston Center
07:21PM 44.1642 -74.9058 343° North 166 191 8,000 -240 Level Boston Center
07:22PM 44.2072 -74.9281 340° North 166 191 7,600 -480 Descending Boston Center
07:23PM 44.2569 -74.9503 342° North 166 191 7,100 -540 Descending Boston Center
07:24PM 44.3022 -74.9756 338° Northwest 166 191 6,600 -480 Descending Boston Center
07:25PM 44.3497 -74.9892 348° North 171 197 6,200 -540 Descending Boston Center
07:26PM 44.3950 -75.0144 338° Northwest 171 197 5,600 -480 Descending Boston Center
07:27PM 44.4364 -75.0306 344° North 165 190 5,300 -300 Descending Boston Center
07:28PM 44.4794 -75.0558 337° Northwest 160 184 5,000 -180 Descending Boston Center
07:29PM 44.5042 -75.0686 340° North 154 177 5,000 -300 Level Boston Center
07:30PM 44.5581 -75.0914 343° North 140 161 4,400 -660 Descending Boston Center
07:31PM 44.6033 -75.1108 343° North 158 182 3,700 -540 Descending Boston Center
07:32PM 44.6486 -75.1364 338° Northwest 173 199 3,400 -240 Descending Boston Center
07:33PM 44.6878 -75.1586 338° Northwest 173 199 3,200 2,040 Descending Boston Center
07:34PM 44.7411 -75.1844 341° North 173 199 8,000 2,400 Climbing Boston Center
07:35PM 44.7825 -75.2069 339° North 173 199 8,000  Level Boston Center